Taimyr — UEMM — position and weather

sailwx.info

Track history (hours):
 
Tides and Currents Weather Stations Pressure Air Temp Water Temp Dewpoint Dewpoint Depression Visibility Wind Speed Wind Dir Waves Ship Positions

Taimyr

Last reported at 2019-Jul-12 05:07 UTC. Time now 2019-Jul-21 23:06 UTC.
Position N 69°30' E 034°00'.
Warning: this ship's position is 9 days out of date.

Length 150 m; beam 29 m.

Type: Other ship. MMSI: 273135100.

Date/timePositionNaut miles runAvg speedWind from/ knotsBaromVisibWave heightAir tempDewpointWater temp
2019-Jul-12 05:07N 69°30' E 034°00'312.1
2019-Jul-12 04:51N 69°32' E 034°07'412.1
2019-Jul-12 04:29N 69°35' E 034°16'612.0
2019-Jul-12 04:00N 69°39' E 034°28'712.2
2019-Jul-12 03:25N 69°44' E 034°42'511.8
2019-Jul-12 03:01N 69°48' E 034°52'911.7
2019-Jul-12 02:17N 69°54' E 035°09'1711.9
2019-Jul-12 00:52N 70°06' E 035°42'8 9.7
2019-Jul-12 00:00N 70°12' E 036°00'2412.6 040 / 251013.3 5.4 4.4
2019-Jul-11 22:07N 70°29' E 036°48'911.8
2019-Jul-11 21:23N 70°36' E 037°05'4112.1
2019-Jul-11 18:00N 71°06' E 038°30'7412.4 030 / 231014.6 5.4 4.6
2019-Jul-11 12:00N 72°00' E 041°12'6711.2 030 / 191015.5 5.4 3.8
2019-Jul-11 06:00N 72°48' E 043°48'7512.5 050 / 141015.1 2.2 3.5
2019-Jul-11 00:00N 73°42' E 046°48'7412.4 040 / 141017.6 0.3 2.3
2019-Jul-10 18:00N 74°36' E 049°54'7312.2 300 / 141018.4 0.1 0.2
2019-Jul-10 12:00N 75°30' E 053°06'7212.0 030 / 121018.5 0.1 0.5
2019-Jul-10 06:00N 76°12' E 057°06'   020 / 101018.0 5.4 1.6
Track history (hours):
 
Tides and Currents Weather Stations Pressure Air Temp Water Temp Dewpoint Dewpoint Depression Visibility Wind Speed Wind Dir Waves Ship Positions

Taimyr

Last reported at 2019-Jul-12 05:07 UTC. Time now 2019-Jul-21 23:06 UTC.
Position N 69°30' E 034°00'.
Warning: this ship's position is 9 days out of date.

Length 150 m; beam 29 m.

Type: Other ship. MMSI: 273135100.

Date/timePositionNaut miles runAvg speedWind from/ knotsBaromVisibWave heightAir tempDewpointWater temp
2019-Jul-12 05:07N 69°30' E 034°00'312.1
2019-Jul-12 04:51N 69°32' E 034°07'412.1
2019-Jul-12 04:29N 69°35' E 034°16'612.0
2019-Jul-12 04:00N 69°39' E 034°28'712.2
2019-Jul-12 03:25N 69°44' E 034°42'511.8
2019-Jul-12 03:01N 69°48' E 034°52'911.7
2019-Jul-12 02:17N 69°54' E 035°09'1711.9
2019-Jul-12 00:52N 70°06' E 035°42'8 9.7
2019-Jul-12 00:00N 70°12' E 036°00'2412.6 040 / 251013.3 5.4 4.4
2019-Jul-11 22:07N 70°29' E 036°48'911.8
2019-Jul-11 21:23N 70°36' E 037°05'4112.1
2019-Jul-11 18:00N 71°06' E 038°30'7412.4 030 / 231014.6 5.4 4.6
2019-Jul-11 12:00N 72°00' E 041°12'6711.2 030 / 191015.5 5.4 3.8
2019-Jul-11 06:00N 72°48' E 043°48'7512.5 050 / 141015.1 2.2 3.5
2019-Jul-11 00:00N 73°42' E 046°48'7412.4 040 / 141017.6 0.3 2.3
2019-Jul-10 18:00N 74°36' E 049°54'7312.2 300 / 141018.4 0.1 0.2
2019-Jul-10 12:00N 75°30' E 053°06'7212.0 030 / 121018.5 0.1 0.5
2019-Jul-10 06:00N 76°12' E 057°06'   020 / 101018.0 5.4 1.6

Dump ship's entire track history